Latest Weather Observations for Giles*

IDW60801

Issued at 5:13 pm WST Monday 30 March 2015 (issued every 30 minutes, with the page automatically refreshed every 10 minutes)

About weather observations | Map of weather stations | Latest weather observations for WA | Other Formats
Station Details ID: 013017 Name: GILES METEOROLOGICAL OFFICE Lat: -25.03 Lon: 128.30 Height: 598.0 m
Data from the previous 72 hours. | See also: Recent months at Giles*

* Giles observations are collected in the South Australia time zone, which includes daylight saving in the summer period. Therefore, Rain since 9am value is with respect to South Australia local time.

Date/Time
WST
Temp
°C
App
Temp
°C
Dew
Point
Rel
Hum
%
Delta-T
°C
Wind Press
QNH
hPa
Press
MSL
hPa
Rain
since 9 am
mm
Dir
 
Spd
km/h
Gust
km/h
Spd
kts
Gust
kts
30/05:00pm 32.0 27.3 3.2 16 15.1 ENE 17 20 9 11 1019.3 1015.2 0.0
30/04:30pm 32.4 27.7 3.3 16 15.3 NE 17 24 9 13 1019.1 1014.9 0.0
30/04:00pm 32.5 28.6 3.6 16 15.3 NE 13 24 7 13 1019.1 1014.9 0.0
30/03:30pm 32.7 29.6 3.6 16 15.4 NNE 9 17 5 9 1018.9 1014.8 0.0
30/03:00pm 32.9 28.5 4.8 17 15.2 E 17 20 9 11 1018.8 1014.7 0.0
30/02:30pm 33.2 29.9 4.7 16 15.4 N 11 17 6 9 1018.8 1014.7 0.0
30/02:00pm 33.5 29.6 5.3 17 15.4 NE 15 24 8 13 1019.2 1015.1 0.0
30/01:30pm 32.6 29.6 6.1 19 14.6 NE 11 20 6 11 1019.5 1015.4 0.0
30/01:00pm 33.1 30.1 6.1 18 14.9 ENE 11 24 6 13 1019.6 1015.5 0.0
30/12:30pm 32.2 28.0 5.9 19 14.4 NNE 17 26 9 14 1020.0 1015.9 0.0
30/12:00pm 32.0 29.6 6.8 20 14.0 ENE 9 22 5 12 1020.2 1016.1 0.0
30/11:30am 32.0 29.0 7.7 22 13.7 ENE 13 28 7 15 1020.7 1016.7 0.0
30/11:00am 31.4 29.1 9.1 25 12.8 NE 11 22 6 12 1021.2 1017.1 0.0
30/10:30am 30.4 28.0 8.8 26 12.3 NNE 11 19 6 10 1021.7 1017.6 0.0
30/10:00am 29.8 27.2 9.3 28 11.7 ENE 13 20 7 11 1022.0 1017.9 0.0
30/09:30am 28.3 25.0 9.5 30 10.7 ENE 17 22 9 12 1022.5 1018.5 0.0
30/09:00am 27.0 23.8 10.0 34 9.7 ENE 17 24 9 13 1022.7 1018.6 0.0
30/08:00am 24.8 21.8 10.6 40 8.1 E 17 22 9 12 1022.8 1018.7 0.0
30/07:30am 23.7 20.8 10.9 44 7.3 E 17 24 9 13 1022.7 1018.6 0.0
30/07:00am 22.5 20.4 11.3 49 6.4 E 13 19 7 10 1022.4 1018.4 0.0
30/06:30am 21.3 19.7 11.7 54 5.5 E 11 15 6 8 1022.1 1018.0 0.0
30/06:00am 20.3 18.0 11.7 57 4.9 E 15 20 8 11 1021.7 1017.6 0.0
30/05:30am 20.1 17.3 11.4 57 4.9 ESE 17 22 9 12 1021.3 1017.2 0.0
30/05:00am 20.3 17.5 11.5 57 5.0 E 17 20 9 11 1021.0 1016.9 0.0
30/04:30am 20.2 18.2 11.4 57 5.0 ESE 13 15 7 8 1020.6 1016.6 0.0
30/04:00am 20.6 18.5 11.2 55 5.3 ESE 13 15 7 8 1020.2 1016.1 0.0
30/03:30am 20.7 19.0 11.1 54 5.4 ESE 11 13 6 7 1020.2 1016.1 0.0
30/03:00am 21.3 19.6 11.3 53 5.7 ESE 11 13 6 7 1020.0 1015.9 0.0
30/02:30am 21.5 19.8 11.1 51 5.9 ESE 11 13 6 7 1019.7 1015.6 0.0
30/02:00am 21.5 20.8 11.3 52 5.8 SSE 6 11 3 6 1019.9 1015.8 0.0
30/01:30am 22.5 21.2 11.1 48 6.5 ESE 9 11 5 6 1019.8 1015.7 0.0
30/01:00am 22.7 21.5 11.6 49 6.4 ESE 9 13 5 7 1020.0 1015.9 0.0
30/12:30am 22.9 22.1 11.2 47 6.7 ESE 6 7 3 4 1020.4 1016.3 0.0
30/12:00am 23.5 22.1 10.9 45 7.2 E 9 13 5 7 1020.6 1016.6 0.0
 
Date/Time
WST
Temp
°C
App
Temp
°C
Dew
Point
Rel
Hum
%
Delta-T
°C
Wind Press
QNH
hPa
Press
MSL
hPa
Rain
since 9 am
mm
Dir
 
Spd
km/h
Gust
km/h
Spd
kts
Gust
kts
29/11:30pm 24.2 23.1 10.7 42 7.7 E 7 11 4 6 1020.6 1016.6 0.0
29/11:00pm 25.4 23.8 10.3 38 8.6 NNE 9 15 5 8 1021.1 1017.0 0.0
29/10:30pm 25.6 24.4 10.3 38 8.7 NE 7 11 4 6 1021.3 1017.2 0.0
29/10:00pm 25.5 23.5 10.2 38 8.7 ENE 11 19 6 10 1021.3 1017.2 0.0
29/09:30pm 26.1 22.2 9.4 35 9.4 NNE 20 28 11 15 1021.6 1017.5 0.0
29/09:00pm 26.5 22.2 9.5 34 9.6 NNE 22 35 12 19 1021.7 1017.6 0.0
29/08:00pm 27.2 22.5 9.1 32 10.2 NNE 24 35 13 19 1021.2 1017.1 0.0
29/07:00pm 28.1 23.5 9.5 31 10.6 NNE 24 33 13 18 1020.7 1016.7 0.0
29/06:30pm 28.9 24.5 7.6 26 11.8 NNE 20 32 11 17 1020.3 1016.2 0.0
29/06:00pm 29.6 24.7 6.8 23 12.5 NNE 22 30 12 16 1019.9 1015.8 0.0
29/05:30pm 30.1 24.6 6.0 22 13.1 NNE 24 32 13 17 1019.4 1015.3 0.0
29/05:00pm 30.7 25.6 5.9 21 13.5 NNE 22 32 12 17 1019.2 1015.1 0.0
29/04:30pm 31.2 26.3 5.3 19 14.0 NNE 20 30 11 16 1018.8 1014.7 0.0
29/04:00pm 32.0 30.2 7.1 21 13.9 N 6 17 3 9 1018.5 1014.4 0.0
29/03:30pm 32.8 29.6 4.9 17 15.1 N 11 20 6 11 1018.3 1014.2 0.0
29/03:00pm 32.9 30.7 6.4 19 14.7 N 7 17 4 9 1018.2 1014.1 0.0
29/02:30pm 32.5 28.8 4.6 17 15.0 N 13 22 7 12 1018.3 1014.2 0.0
29/02:00pm 32.4 29.5 4.7 17 14.9 NNE 9 15 5 8 1018.3 1014.2 0.0
29/01:30pm 33.1 29.8 4.5 16 15.4 NNW 11 20 6 11 1018.5 1014.4 0.0
29/01:00pm 32.3 29.3 5.8 19 14.5 WNW 11 19 6 10 1018.8 1014.7 0.0
29/12:30pm 31.7 28.3 5.9 20 14.1 NNW 13 28 7 15 1019.1 1014.9 0.0
29/12:00pm 31.7 28.2 5.3 19 14.3 W 13 22 7 12 1019.5 1015.4 0.0
29/11:30am 31.4 28.8 5.9 20 13.9 NW 9 15 5 8 1019.9 1015.8 0.0
29/11:00am 30.7 27.1 4.9 19 13.8 N 13 22 7 12 1020.5 1016.4 0.0
29/10:30am 30.8 25.8 4.8 19 13.9 N 20 28 11 15 1021.0 1016.9 0.0
29/10:00am 30.5 26.1 4.8 19 13.7 NNE 17 24 9 13 1021.4 1017.3 0.0
29/09:30am 29.0 25.2 4.1 20 13.0 NNE 13 24 7 13 1021.6 1017.5 0.0
29/09:00am 28.0 23.0 1.3 17 13.2 NNE 17 30 9 16 1021.7 1017.6 0.0
29/08:30am 27.5 21.7 0.2 17 13.2 NNE 20 32 11 17 1021.5 1017.4 0.0
29/08:00am 27.3 23.3 2.7 20 12.4 ENE 13 19 7 10 1021.6 1017.5 0.0
29/07:30am 25.1 21.6 3.5 24 10.9 ESE 11 13 6 7 1021.5 1017.4 0.0
29/07:00am 23.4 19.2 3.9 28 9.8 ESE 15 19 8 10 1021.1 1017.0 0.0
29/06:30am 21.7 17.6 4.3 32 8.7 SE 15 19 8 10 1020.9 1016.8 0.0
29/06:00am 20.3 17.5 5.3 37 7.6 SE 9 11 5 6 1020.6 1016.6 0.0
29/05:30am 20.0 17.4 5.9 39 7.2 SE 9 11 5 6 1020.5 1016.4 0.0
29/05:00am 20.3 16.8 5.3 37 7.6 ESE 13 15 7 8 1019.8 1015.7 0.0
29/04:30am 19.8 17.1 5.6 39 7.2 ESE 9 13 5 7 1019.6 1015.5 0.0
29/04:00am 21.4 17.9 5.6 35 8.1 ENE 13 15 7 8 1019.4 1015.3 0.0
29/03:30am 20.6 17.7 6.5 40 7.3 E 11 13 6 7 1019.3 1015.2 0.0
29/03:00am 21.2 18.8 6.9 39 7.5 E 9 11 5 6 1019.2 1015.1 0.0
29/02:30am 21.3 19.0 7.3 40 7.4 E 9 11 5 6 1019.1 1014.9 0.0
29/02:00am 21.4 19.4 7.2 40 7.5 ESE 7 7 4 4 1018.9 1014.8 0.0
29/01:30am 22.3 19.9 7.0 37 8.1 E 9 11 5 6 1018.9 1014.8 0.0
29/01:00am 23.0 20.1 6.7 35 8.6 E 11 13 6 7 1019.1 1014.9 0.0
29/12:30am 23.0 20.2 7.0 35 8.5 E 11 13 6 7 1019.3 1015.2 0.0
29/12:00am 22.6 20.4 7.9 39 7.9 ENE 9 11 5 6 1019.7 1015.6 0.0
 
Date/Time
WST
Temp
°C
App
Temp
°C
Dew
Point
Rel
Hum
%
Delta-T
°C
Wind Press
QNH
hPa
Press
MSL
hPa
Rain
since 9 am
mm
Dir
 
Spd
km/h
Gust
km/h
Spd
kts
Gust
kts
28/11:30pm 22.6 20.4 7.9 39 7.9 E 9 11 5 6 1019.8 1015.7 0.0
28/11:00pm 22.8 20.9 7.5 37 8.2 SE 7 11 4 6 1019.7 1015.6 0.0
28/10:30pm 23.9 21.1 7.1 34 9.0 SSE 11 15 6 8 1019.8 1015.7 0.0
28/10:00pm 23.8 19.7 6.4 32 9.2 SSW 17 24 9 13 1019.7 1015.6 0.0
28/09:30pm 27.0 23.3 4.5 23 11.7 N 13 19 7 10 1019.7 1015.6 0.0
28/09:00pm 27.1 22.6 4.4 23 11.8 NNE 17 22 9 12 1019.5 1015.4 0.0
28/08:30pm 27.2 23.6 4.9 24 11.7 NE 13 20 7 11 1019.5 1015.4 0.0
28/08:00pm 27.1 23.6 5.3 25 11.5 NE 13 20 7 11 1019.3 1015.2 0.0
28/07:30pm 25.3 21.8 7.1 31 9.8 ESE 15 19 8 10 1019.1 1014.9 0.0
28/07:00pm 25.4 21.4 6.7 30 10.0 E 17 24 9 13 1018.7 1014.6 0.0
28/06:30pm 25.6 21.2 6.5 29 10.2 E 19 24 10 13 1018.6 1014.5 0.0
28/06:00pm 26.1 22.1 6.5 28 10.5 E 17 26 9 14 1018.5 1014.4 0.0
28/05:30pm 26.7 23.3 5.8 26 11.1 E 13 19 7 10 1018.4 1014.3 0.0
28/05:00pm 27.5 24.2 6.6 26 11.3 NE 13 19 7 10 1018.4 1014.3 0.0
28/04:30pm 27.7 23.6 6.1 25 11.6 NE 17 20 9 11 1018.2 1014.1 0.0
28/04:00pm 27.8 24.0 6.0 25 11.7 NE 15 20 8 11 1018.1 1014.0 0.0
28/03:30pm 27.6 24.3 6.5 26 11.4 NE 13 19 7 10 1018.1 1014.0 0.0
28/03:00pm 27.5 24.0 7.2 27 11.1 NNE 15 20 8 11 1018.2 1014.1 0.0
28/02:30pm 27.2 22.6 6.4 26 11.2 N 20 28 11 15 1018.4 1014.3 0.0
28/02:00pm 26.3 21.9 9.0 33 9.7 N 22 30 12 16 1018.5 1014.4 0.0
28/01:30pm 25.3 20.7 9.7 37 8.8 N 24 32 13 17 1018.9 1014.8 0.0
28/01:00pm 27.9 20.6 2.3 19 12.9 N 30 39 16 21 1018.6 1014.5 0.0
28/12:30pm 29.3 21.0 -1.7 13 14.7 N 32 43 17 23 1018.5 1014.4 0.0
28/12:00pm 30.5 23.3 -2.2 12 15.5 N 26 37 14 20 1018.4 1014.3 0.0
28/11:30am 30.5 23.6 -2.7 11 15.6 N 24 35 13 19 1018.7 1014.6 0.0
28/11:00am 30.8 23.5 -2.8 11 15.8 NNE 26 43 14 23 1019.2 1015.1 0.0
28/10:30am 29.9 22.8 -1.5 13 15.0 NNE 26 37 14 20 1019.4 1015.3 0.0
28/10:00am 29.1 21.8 -2.8 12 14.8 NNE 26 37 14 20 1019.8 1015.7 0.0
28/09:30am 28.6 22.3 -4.2 11 14.8 NE 20 30 11 16 1020.2 1016.1 0.0
28/09:00am 27.5 20.6 -2.8 13 13.9 NE 24 35 13 19 1020.5 1016.4 0.0
28/08:30am 26.6 20.6 -2.9 14 13.4 NE 19 24 10 13 1020.7 1016.7 0.0
28/08:00am 25.7 18.8 -2.9 15 12.9 NE 24 37 13 20 1020.5 1016.4 0.0
28/07:30am 25.6 19.0 -3.1 15 12.9 NE 22 33 12 18 1020.2 1016.1 0.0
28/07:00am 25.3 18.1 -5.5 12 13.2 NE 24 37 13 20 1019.9 1015.8 0.0
28/06:30am 24.8 18.7 -4.3 14 12.7 ENE 19 30 10 16 1019.8 1015.7 0.0
28/06:00am 23.8 19.3 -3.5 16 12.0 E 11 15 6 8 1019.9 1015.8 0.0
28/05:30am 24.2 19.6 -3.9 15 12.3 ESE 11 15 6 8 1019.9 1015.8 0.0
28/05:00am 24.2 20.1 -3.0 16 12.1 E 9 20 5 11 1019.6 1015.5 0.0
28/04:30am 24.4 18.2 -2.9 16 12.2 ENE 20 28 11 15 1019.1 1014.9 0.0
28/04:00am 24.5 18.3 -3.1 16 12.3 ENE 20 30 11 16 1018.3 1014.2 0.0
28/03:30am 25.0 17.5 -4.2 14 12.8 ENE 26 39 14 21 1018.1 1014.0 0.0
28/03:00am 25.2 17.4 -4.1 14 12.9 ENE 28 41 15 22 1017.8 1013.7 0.0
28/02:30am 25.0 17.6 -3.7 14 12.7 ENE 26 39 14 21 1017.9 1013.8 0.0
28/02:00am 25.1 19.1 -3.0 15 12.6 E 19 37 10 20 1018.1 1014.0 0.0
28/01:30am 24.8 18.4 -1.9 17 12.2 E 22 32 12 17 1018.2 1014.1 0.0
28/01:00am 25.2 18.4 -1.8 16 12.4 ENE 24 33 13 18 1018.4 1014.3 0.0
28/12:30am 25.6 19.6 -1.7 16 12.6 E 20 30 11 16 1018.6 1014.5 0.0
28/12:00am 25.2 19.8 -1.0 17 12.2 E 17 24 9 13 1018.8 1014.7 0.0
 
Date/Time
WST
Temp
°C
App
Temp
°C
Dew
Point
Rel
Hum
%
Delta-T
°C
Wind Press
QNH
hPa
Press
MSL
hPa
Rain
since 9 am
mm
Dir
 
Spd
km/h
Gust
km/h
Spd
kts
Gust
kts
27/11:30pm 25.5 19.6 -0.7 18 12.3 E 20 28 11 15 1019.1 1014.9 0.0
27/11:00pm 25.8 19.2 -0.4 18 12.4 E 24 32 13 17 1019.3 1015.2 0.0
27/10:30pm 25.9 20.3 0.9 19 12.1 E 20 28 11 15 1019.5 1015.4 0.0
27/10:00pm 25.7 20.8 2.3 22 11.6 E 17 24 9 13 1019.7 1015.6 0.0
27/09:30pm 26.9 22.1 2.7 21 12.2 ENE 17 20 9 11 1020.0 1015.9 0.0
27/09:00pm 26.9 22.6 3.3 22 12.0 ENE 15 20 8 11 1020.1 1016.0 0.0
27/08:30pm 26.9 23.1 3.7 22 11.9 ENE 13 15 7 8 1020.3 1016.2 0.0
27/08:00pm 26.5 23.0 3.6 23 11.7 E 11 13 6 7 1020.3 1016.2 0.0
27/07:30pm 27.8 24.1 4.4 22 12.2 NE 13 15 7 8 1020.1 1016.0 0.0
27/07:00pm 27.7 24.8 4.6 23 12.1 NE 9 11 5 6 1019.8 1015.7 0.0
27/06:30pm 28.3 25.6 5.4 23 12.2 NE 9 11 5 6 1019.7 1015.6 0.0
27/06:00pm 29.4 26.5 4.6 20 13.1 NE 9 15 5 8 1019.4 1015.3 0.0
27/05:30pm 30.0 26.7 4.5 20 13.5 ENE 11 15 6 8 1019.1 1014.9 0.0
27/05:00pm 30.6 26.7 3.4 17 14.2 ENE 13 24 7 13 1018.6 1014.5 0.0
27/04:30pm 31.2 29.3 6.8 21 13.5 ENE 6 11 3 6 1018.4 1014.3 0.0
27/04:00pm 31.2 28.2 3.9 17 14.4 ENE 9 17 5 9 1018.4 1014.3 0.0
27/03:30pm 31.4 27.4 2.9 16 14.8 ESE 13 20 7 11 1018.5 1014.4 0.0
27/03:00pm 31.5 29.2 4.9 18 14.3 SSE 6 11 3 6 1018.5 1014.4 0.0

Other Formats:

Comma delimited format used in spreadsheet applications
http://www.bom.gov.au/fwo/IDW60801/IDW60801.94461.axf

JavaScript Object Notation format (JSON) in row-major order
http://www.bom.gov.au/fwo/IDW60801/IDW60801.94461.json